Flight Track Log - Related Links

Times and Time Zones

All times are in EST time to prevent confusion due to time zone crossing. See the N6711L flight status page for this flight to view local times or setup timezone preferences in your user account.

Time Position Orientation Groundspeed Altitude Reporting Facility
EST Latitude Longitude Course Direction KTS MPH feet Rate Location/Type
Sat 09:17:00 AM 26.4469 -81.8038 355° North  Level FlightAware Approximate
Sat 09:18:00 AM 26.4959 -81.8085 355° North  Level FlightAware Approximate
Sat 09:19:00 AM 26.5450 -81.8132 355° North  Level FlightAware Approximate
Sat 09:20:00 AM 26.5941 -81.8179 355° North  Level FlightAware Approximate
Sat 09:21:00 AM 26.6431 -81.8226 355° North  Level FlightAware Approximate
Sat 09:22:00 AM 26.6922 -81.8273 355° North  Level FlightAware Approximate
Sat 09:23:00 AM 26.7413 -81.8320 355° North  Level FlightAware Approximate
Sat 09:24:00 AM 26.7903 -81.8367 355° North  Level FlightAware Approximate
Sat 09:25:00 AM 26.8309 -81.8681 354° North  Level Estimated
Sat 09:26:00 AM 26.8801 -81.8699 358° North  Level FlightAware Approximate
Sat 09:26:48 AM 26.7775 -81.8636 357° North 193 222 6,200  Level Miami Center
Sat 09:27:00 AM 26.9293 -81.8717 358° North  Level FlightAware Approximate
Sat 09:27:47 AM 26.8275 -81.8681 355° North 214 246 6,200  Level Miami Center
Sat 09:28:00 AM 26.9785 -81.8735 358° North  Level FlightAware Approximate
Sat 09:28:47 AM 26.8836 -81.8750 354° North 206 237 6,200  Level Miami Center
Sat 09:29:00 AM 27.0187 -81.9054 351° North  Level Estimated
Sat 09:29:47 AM 26.9356 -81.8819 353° North 195 224 6,200  Level Miami Center
Sat 09:30:00 AM 27.0679 -81.9082 357° North  Level FlightAware Approximate
Sat 09:30:47 AM 26.9856 -81.8864 355° North 195 224 6,200  Level Miami Center
Sat 09:31:00 AM 27.1171 -81.9109 357° North  Level FlightAware Approximate
Sat 09:31:47 AM 27.0458 -81.8939 354° North 200 230 6,200  Level Miami Center
Sat 09:32:00 AM 27.1663 -81.9137 357° North  Level FlightAware Approximate
Sat 09:32:47 AM 27.0997 -81.9031 351° North 195 224 6,200  Level Miami Center
Sat 09:33:47 AM 27.1539 -81.9078 356° North 195 224 6,200  Level Miami Center
Sat 09:34:47 AM 27.2078 -81.9172 351° North 195 224 6,200  Level Miami Center
Sat 09:35:47 AM 27.2619 -81.9217 356° North 195 224 6,200  Level Miami Center
Sat 09:36:47 AM 27.3181 -81.9314 351° North 195 224 6,200  Level Miami Center
Sat 09:37:47 AM 27.3719 -81.9383 353° North 195 224 6,200  Level Miami Center
Sat 09:38:47 AM 27.4261 -81.9453 354° North 195 224 6,200  Level Miami Center
Sat 09:39:47 AM 27.4800 -81.9503 355° North 195 224 6,200  Level Miami Center
Sat 09:40:47 AM 27.5383 -81.9575 354° North 195 224 6,200 -100 Level Miami Center
Sat 09:41:47 AM 27.5861 -81.9594 358° North 195 224 6,000  Descending Miami Center
Sat 09:42:47 AM 27.6483 -81.9694 352° North 201 231 6,200 100 Climbing Miami Center
Sat 09:43:47 AM 27.7025 -81.9764 354° North 201 231 6,200  Level Miami Center
Sat 09:44:47 AM 27.7564 -81.9858 351° North 201 231 6,200  Level Miami Center
Sat 09:45:47 AM 27.8144 -81.9933 353° North 201 231 6,200  Level Miami Center
Sat 09:46:47 AM 27.8683 -82.0028 351° North 201 231 6,200  Level Miami Center
Sat 09:47:25 AM 27.9000 -82.0000 North 199 229 6,200  Level Tampa TRACON
Sat 09:48:25 AM 27.9667 -82.0167 348° North 200 230 6,200  Level Tampa TRACON
Sat 09:49:19 AM 28.0000 -82.0333 336° Northwest 199 229 6,200  Level Tampa TRACON
Sat 09:50:25 AM 28.0667 -82.0667 336° Northwest 198 228 6,200  Level Tampa TRACON
Sat 09:51:25 AM 28.1167 -82.1000 330° Northwest 200 230 6,200  Level Tampa TRACON
Sat 09:52:25 AM 28.1500 -82.1333 319° Northwest 198 228 6,200  Level Tampa TRACON
Sat 09:53:25 AM 28.2000 -82.1500 344° North 198 228 6,200  Level Tampa TRACON
Sat 09:54:25 AM 28.2500 -82.1833 330° Northwest 199 229 6,200 -50 Level Tampa TRACON
Sat 09:55:26 AM 28.3000 -82.2167 330° Northwest 202 232 6,100 -50 Descending Tampa TRACON
Sat 09:56:26 AM 28.3500 -82.2500 330° Northwest 203 234 6,100  Level Tampa TRACON
Sat 09:57:32 AM 28.4000 -82.2833 330° Northwest 196 226 6,100  Level Tampa TRACON
Sat 09:58:26 AM 28.4500 -82.3167 330° Northwest 197 227 6,100  Level Tampa TRACON
Sat 09:59:26 AM 28.5000 -82.3333 344° North 198 228 6,100  Level Tampa TRACON
Sat 10:00:26 AM 28.5500 -82.3667 330° Northwest 198 228 6,100  Level Tampa TRACON
Sat 10:01:26 AM 28.5833 -82.4000 319° Northwest 195 224 6,100  Level Tampa TRACON
Sat 10:03:55 AM 28.7086 -82.4783 333° Northwest 197 227 6,100  Level Jacksonville Center
Sat 10:04:55 AM 28.7567 -82.5089 331° Northwest 197 227 6,100  Level Jacksonville Center
Sat 10:06:02 AM 28.8089 -82.5419 331° Northwest 198 228 6,100  Level Jacksonville Center
Sat 10:06:06 AM 28.8131 -82.5419 360° North 199 229 6,100  Level Jacksonville Center
Sat 10:06:57 AM 28.8528 -82.5703 328° Northwest 199 229 6,100  Level Jacksonville Center
Sat 10:07:06 AM 28.8611 -82.5750 334° Northwest 199 229 6,100  Level Jacksonville Center
Sat 10:08:06 AM 28.9050 -82.6008 333° Northwest 206 237 6,100  Level Jacksonville Center
Sat 10:09:06 AM 28.9511 -82.6317 330° Northwest 201 231 6,100  Level Jacksonville Center
Sat 10:10:06 AM 29.0011 -82.6647 330° Northwest 201 231 6,100  Level Jacksonville Center
Sat 10:11:06 AM 29.0492 -82.6931 333° Northwest 201 231 6,100  Level Jacksonville Center
Sat 10:12:06 AM 29.0972 -82.7239 331° Northwest 201 231 6,100  Level Jacksonville Center
Sat 10:13:06 AM 29.1453 -82.7547 331° Northwest 201 231 6,100  Level Jacksonville Center
Sat 10:14:06 AM 29.1933 -82.7856 331° Northwest 201 231 6,100  Level Jacksonville Center
Sat 10:15:06 AM 29.2414 -82.8189 329° Northwest 201 231 6,100  Level Jacksonville Center
Sat 10:16:06 AM 29.2894 -82.8497 331° Northwest 201 231 6,100  Level Jacksonville Center
Sat 10:17:06 AM 29.3375 -82.8806 331° Northwest 201 231 6,100  Level Jacksonville Center
Sat 10:18:06 AM 29.3875 -82.9139 330° Northwest 206 237 6,100  Level Jacksonville Center
Sat 10:19:06 AM 29.4356 -82.9450 331° Northwest 206 237 6,100  Level Jacksonville Center
Sat 10:20:06 AM 29.4836 -82.9761 331° Northwest 206 237 6,100  Level Jacksonville Center
Sat 10:21:06 AM 29.5336 -83.0072 332° Northwest 206 237 6,100  Level Jacksonville Center
Sat 10:22:06 AM 29.5817 -83.0406 329° Northwest 206 237 6,100  Level Jacksonville Center
Sat 10:23:06 AM 29.6214 -83.0836 317° Northwest 206 237 6,100  Level Jacksonville Center
Sat 10:24:06 AM 29.6608 -83.1267 317° Northwest 196 226 6,100  Level Jacksonville Center
Sat 10:25:06 AM 29.6983 -83.1700 315° West 196 226 6,100  Level Jacksonville Center
Sat 10:26:06 AM 29.7378 -83.2156 315° West 196 226 6,100  Level Jacksonville Center
Sat 10:27:06 AM 29.7733 -83.2611 312° West 196 226 6,100  Level Jacksonville Center
Sat 10:28:06 AM 29.8128 -83.3067 315° West 196 226 6,100  Level Jacksonville Center
Sat 10:29:06 AM 29.8503 -83.3500 315° West 196 226 6,100  Level Jacksonville Center
Sat 10:30:06 AM 29.8856 -83.3933 313° West 196 226 6,100  Level Jacksonville Center
Sat 10:31:06 AM 29.9231 -83.4389 314° West 196 226 6,100  Level Jacksonville Center
Sat 10:32:06 AM 29.9603 -83.4822 315° West 196 226 6,100  Level Jacksonville Center
Sat 10:33:06 AM 29.9997 -83.5281 315° West 196 226 6,100  Level Jacksonville Center
Sat 10:34:06 AM 30.0350 -83.5717 313° West 196 226 6,100  Level Jacksonville Center
Sat 10:35:06 AM 30.0725 -83.6175 313° West 196 226 6,100  Level Jacksonville Center
Sat 10:36:06 AM 30.1075 -83.6586 315° West 196 226 6,100  Level Jacksonville Center
Sat 10:37:06 AM 30.1492 -83.7092 314° West 196 226 6,100  Level Jacksonville Center
Sat 10:38:06 AM 30.1822 -83.7503 313° West 191 220 6,100  Level Jacksonville Center
Sat 10:39:06 AM 30.2194 -83.7939 315° West 191 220 6,100  Level Jacksonville Center
Sat 10:40:06 AM 30.2608 -83.8400 316° Northwest 191 220 6,100  Level Jacksonville Center
Sat 10:41:06 AM 30.2961 -83.8861 312° West 191 220 6,100  Level Jacksonville Center
Sat 10:42:06 AM 30.3333 -83.9297 315° West 191 220 6,100 -6 Level Jacksonville Center
Sat 10:57:42 AM 30.9000 -84.6236 313° West 189 217 6,000 -6 Descending Jacksonville Center
Sat 10:58:00 AM 30.8822 -84.6118 313° West  Level FlightAware Approximate
Sat 10:58:18 AM 30.9206 -84.6506 312° West 190 219 6,000  Level Jacksonville Center
Sat 10:59:00 AM 30.9168 -84.6548 313° West  Level FlightAware Approximate
Sat 10:59:19 AM 30.9594 -84.6950 316° Northwest 188 216 6,200  Level Jacksonville Center
Sat 11:00:00 AM 30.9514 -84.6978 313° West  Level FlightAware Approximate
Sat 11:00:19 AM 30.9942 -84.7417 311° West 186 214 6,200  Level Jacksonville Center
Sat 11:01:00 AM 30.9859 -84.7409 313° West  Level FlightAware Approximate
Sat 11:01:20 AM 31.0292 -84.7861 313° West 186 214 6,200  Level Jacksonville Center
Sat 11:02:00 AM 31.0205 -84.7839 313° West  Level FlightAware Approximate
Sat 11:02:21 AM 31.0661 -84.8328 313° West 191 220 6,100  Level Jacksonville Center
Sat 11:03:21 AM 31.1050 -84.8772 316° Northwest 186 214 6,100  Level Jacksonville Center
Sat 11:04:22 AM 31.1378 -84.9192 312° West 186 214 6,100  Level Jacksonville Center
Sat 11:05:22 AM 31.1744 -84.9686 311° West 189 217 6,100  Level Jacksonville Center
Sat 11:06:23 AM 31.2114 -85.0108 316° Northwest 190 219 6,100  Level Jacksonville Center
Sat 11:07:24 AM 31.2483 -85.0578 313° West 190 219 6,100  Level Jacksonville Center
Sat 11:08:24 AM 31.2831 -85.0997 314° West 190 219 6,100  Level Jacksonville Center
Sat 11:09:25 AM 31.3197 -85.1494 311° West 191 220 6,100  Level Jacksonville Center
Sat 11:10:25 AM 31.3586 -85.1942 316° Northwest 188 216 6,100  Level Jacksonville Center
Sat 11:11:26 AM 31.3911 -85.2386 311° West 189 217 6,100  Level Jacksonville Center
Sat 11:12:39 AM 31.4361 -85.2958 313° West 191 220 6,100  Level Jacksonville Center
Sat 11:13:39 AM 31.4728 -85.3406 314° West 190 219 6,100  Level Jacksonville Center
Sat 11:14:40 AM 31.5072 -85.3853 312° West 191 220 6,100  Level Jacksonville Center
Sat 11:15:34 AM 31.5419 -85.4278 314° West 191 220 6,100  Level Jacksonville Center
Sat 11:16:35 AM 31.5786 -85.4725 314° West 190 219 6,100  Level Jacksonville Center
Sat 11:17:36 AM 31.6153 -85.5200 312° West 192 221 6,100  Level Jacksonville Center
Sat 11:18:30 AM 31.6478 -85.5600 314° West 191 220 6,100  Level Jacksonville Center
Sat 11:19:31 AM 31.6844 -85.6075 312° West 189 217 6,100  Level Jacksonville Center
Sat 11:20:31 AM 31.7189 -85.6500 314° West 189 217 6,100  Level Jacksonville Center
Sat 11:21:32 AM 31.7556 -85.7000 311° West 189 217 6,100  Level Jacksonville Center
Sat 11:23:00 AM 31.8071 -85.7640 314° West  Level FlightAware Approximate
Sat 11:30:00 AM 32.0505 -86.0728 312° West  Level FlightAware Approximate
Sat 11:31:00 AM 32.0843 -86.1181 308° West  Level FlightAware Approximate
Sat 11:32:00 AM 32.1159 -86.1655 308° West  Level FlightAware Approximate
Sat 11:33:00 AM 32.1509 -86.2094 313° West  Level FlightAware Approximate
Sat 11:34:00 AM 32.1860 -86.2533 313° West  Level FlightAware Approximate
Sat 11:35:00 AM 32.2211 -86.2971 313° West  Level FlightAware Approximate
Sat 11:36:00 AM 32.2569 -86.3402 320° Northwest  Level FlightAware Approximate
Sat 11:37:00 AM 32.2959 -86.3792 320° Northwest  Level FlightAware Approximate
Sat 11:38:00 AM 32.3000 -86.3833 320° Northwest  Level FlightAware Approximate
Sat 11:39:00 AM 32.3006 -86.3940 320° Northwest  Level Estimated
Sat 11:40:00 AM 32.3006 -86.3940 320° Northwest  Level Estimated
Sat 11:41:00 AM 32.3006 -86.3940 320° Northwest  Level Estimated
Sat 11:42:00 AM 32.3006 -86.3940 320° Northwest  Level Estimated
Sat 11:43:00 AM 32.3006 -86.3940 320° Northwest  Level Estimated
Sat 11:44:00 AM 32.3006 -86.3940 320° Northwest  Level Estimated
Sat 11:45:00 AM 32.3006 -86.3940 320° Northwest  Level Estimated
Sat 11:46:00 AM 32.3006 -86.3940 320° Northwest  Level Estimated
Sat 11:47:00 AM 32.3006 -86.3940 320° Northwest  Level Estimated
Sat 11:48:00 AM 32.3006 -86.3940 320° Northwest  Level Estimated
Sat 11:49:00 AM 32.3006 -86.3940 320° Northwest  Level Estimated
Sat 11:50:00 AM 32.3006 -86.3940 320° Northwest  Level Estimated
Sat 11:51:00 AM 32.3006 -86.3940 320° Northwest  Level Estimated
Sat 11:52:00 AM 32.3006 -86.3940 320° Northwest  Level Estimated
Sat 11:53:00 AM 32.3006 -86.3940 320° Northwest  Level Estimated
Sat 11:54:00 AM 32.3006 -86.3940 320° Northwest  Level Estimated

Login

Don't have an account? Register now (free) for customized features, flight alerts, and more!